Dunnellon, FL

3:36 PM EDT on August 27, 2015 (GMT -0400)
Citrus Springs | | Change Station
CLOSE
Current Station
Personal Weather Station
Location: Dunnellon, FL
Elevation: 63 ft
Nearby Weather Stations

Elev 63 ft 28.99 °N, 82.44 °W | Updated 12 seconds ago

Clear
Clear
87.1 °F
Feels Like 99 °F
N
0.0
Wind Variable Wind from NNW
Gusts 3.0 mph

Today
High -- | Low -- °F
--% Chance of Precip.
Yesterday
High -- | Low -- °F
Precip. -- in
7:04 AM 7:57 PM
Waxing Gibbous, 94% visible
Pressure 29.95 in
Visibility 10.0 miles
Clouds Mostly Cloudy 2300 ft
Heat Index 99 °F
Dew Point 77 °F
Humidity 72%
Rainfall 0.00 in
Snow Depth Not available.
UV 7 out of 12
Pollen 3.40 out of 12
Air Quality Not available.
Flu Activity Not available.
METAR KOCF 271850Z 15009KT 10SM BKN023 30/24 A2995
Pressure 29.95 in
Visibility 10.0 miles
Clouds Mostly Cloudy 2300 ft
Heat Index 99 °F
Dew Point 77 °F
Humidity 72%
Rainfall 0.00 in
Snow Depth Not available.
UV 7 out of 12
Pollen 3.40 out of 12
Air Quality Not available.
Flu Activity Not available.
METAR KOCF 271850Z 15009KT 10SM BKN023 30/24 A2995

10-Day Weather Forecast

×

Almanac

Astronomy

Aug. 27, 2015 Rise Set
Actual Time
Civil Twilight
Nautical Twilight
Astronomical Twilight
Moon
Length of Visible Light
Length of Day
Tomorrow will be .
, % of the Moon is Illuminated

Today's Extremes

State Highs State Lows

Community

WunderPhotos

Upload Photos

1,850,195 photos uploaded!

WunderBlogs® & News

Nearby

Air Quality

  Air Quality AQ Index Pollutant
Not available.

Snow Depth

Station Depth Elevation

Earthquake Activity

City Distance Mag. Time & Date
Minimum magnitude displayed is 2.5.

Coastal Water Temperatures

Place Temperature

Stations

Nearby Weather Stations

Station Location Temp. Windchill Dew Point Humidity Wind Precip. Elev Updated Type